Tuscarora, New York
Current Conditions -  °F | °C
As of 12:54 PM on Friday 21 Nov 2014 (Local Time) from KDSV Reporting Station
Broken Clouds Broken Clouds  
Wind Chill: 18°   Ceiling: 3900
Heat Index: 28°   Visibility: 10mi
Dew Point: 15°   Wind: 12mph
Humidity: 58%   Direction: 320°NW
Pressure: 30.37"   Gusts: NA
Location:  42.6879°N, 77.8772°W
Report Text: KDSV 211754Z AUTO 32010KT 10SM BKN039 BKN048 M02/M09 A3037 RMK AO2 SNE00 SLP302 P0001 60001 T10221094 11022 21072 51011
Loading
Personal Weather Stations






























Interactive Weather Map New forecast layout! Learn more

10-Day Weather Forecast

Advertisements
Track Severe Weather on mobile